Time;durP1;ratioP1;P1;durP2;ratioP2;P2;SDS_P1;SDS_P2;PMS_P1;PMS_P2;Temp;Humidity;BMP_temperature;BMP_pressure;BME280_temperature;BME280_humidity;BME280_pressure;Samples;Min_cycle;Max_cycle;Signal;HPM_P1;HPM_P2
2021/03/17 00:00:58;;;;;;;14.87;10.50;;;5.90;99.90;;;;;;5054978;28;20469;-73
2021/03/17 00:03:24;;;;;;;12.57;10.17;;;6.00;99.90;;;;;;5055121;28;20190;-71
2021/03/17 00:05:50;;;;;;;12.23;8.70;;;5.90;99.90;;;;;;5055217;28;20446;-70
2021/03/17 00:08:20;;;;;;;13.60;9.40;;;5.90;99.90;;;;;;5054116;28;20413;-70
2021/03/17 00:10:51;;;;;;;10.50;8.97;;;5.80;99.90;;;;;;5052498;28;20461;-71
2021/03/17 00:13:19;;;;;;;13.27;10.20;;;5.90;99.90;;;;;;5054688;28;20420;-71
2021/03/17 00:15:45;;;;;;;15.07;9.27;;;5.90;99.90;;;;;;5054150;28;20894;-72
2021/03/17 00:18:12;;;;;;;10.63;9.53;;;6.00;99.90;;;;;;5054216;28;20443;-71
2021/03/17 00:20:39;;;;;;;11.53;9.67;;;6.00;99.90;;;;;;5052494;28;20567;-71
2021/03/17 00:23:04;;;;;;;12.87;9.10;;;5.90;99.90;;;;;;5054281;28;20431;-71
2021/03/17 00:25:35;;;;;;;10.60;8.97;;;5.90;99.90;;;;;;5054144;28;20405;-71
2021/03/17 00:28:02;;;;;;;10.97;9.30;;;6.00;99.90;;;;;;5054119;28;20511;-71
2021/03/17 00:30:29;;;;;;;12.03;10.20;;;6.10;99.90;;;;;;5052425;28;20424;-71
2021/03/17 00:32:55;;;;;;;12.07;10.13;;;6.10;99.90;;;;;;5054222;28;20488;-71
2021/03/17 00:35:21;;;;;;;11.77;10.00;;;6.10;99.90;;;;;;5054102;28;20515;-72
2021/03/17 00:37:47;;;;;;;13.10;9.37;;;6.10;99.90;;;;;;5054294;28;20448;-72
2021/03/17 00:40:13;;;;;;;12.00;9.53;;;6.10;99.90;;;;;;5053757;28;20447;-71
2021/03/17 00:42:38;;;;;;;11.90;9.70;;;5.90;99.90;;;;;;5052653;28;20182;-71
2021/03/17 00:45:05;;;;;;;10.90;9.40;;;5.90;99.90;;;;;;5053798;28;20452;-71
2021/03/17 00:47:30;;;;;;;13.37;9.93;;;5.90;99.90;;;;;;5053730;28;20624;-71
2021/03/17 00:49:56;;;;;;;11.73;9.57;;;5.80;99.90;;;;;;5053767;28;20463;-71
2021/03/17 00:52:21;;;;;;;12.03;10.50;;;5.80;99.90;;;;;;5048095;28;20293;-71
2021/03/17 00:54:47;;;;;;;12.67;10.43;;;5.90;99.90;;;;;;5044633;28;20640;-71
2021/03/17 00:57:12;;;;;;;12.13;9.67;;;6.00;99.90;;;;;;5054247;28;20175;-71
2021/03/17 00:59:38;;;;;;;13.20;11.00;;;6.10;99.90;;;;;;5052184;28;20174;-71
2021/03/17 01:02:03;;;;;;;12.73;11.40;;;6.00;99.90;;;;;;5053757;28;20499;-72
2021/03/17 01:04:29;;;;;;;13.70;10.60;;;6.00;99.90;;;;;;5050897;28;20525;-72
2021/03/17 01:06:54;;;;;;;13.40;10.00;;;6.10;99.90;;;;;;5053939;28;20194;-72
2021/03/17 01:09:20;;;;;;;15.83;10.50;;;6.20;99.90;;;;;;5053264;28;20736;-72
2021/03/17 01:11:45;;;;;;;11.23;9.93;;;6.10;99.90;;;;;;5053878;28;20194;-72
2021/03/17 01:14:11;;;;;;;12.10;10.00;;;6.20;99.90;;;;;;5051975;28;20551;-72
2021/03/17 01:16:38;;;;;;;12.40;10.10;;;6.20;99.90;;;;;;5052237;28;20522;-72
2021/03/17 01:19:04;;;;;;;11.83;9.83;;;6.30;99.90;;;;;;5053687;28;20529;-72
2021/03/17 01:21:30;;;;;;;11.30;9.67;;;6.20;99.90;;;;;;5053789;28;20537;-72
2021/03/17 01:23:56;;;;;;;13.10;10.07;;;6.10;99.90;;;;;;5052165;28;20309;-72
2021/03/17 01:26:21;;;;;;;12.93;10.87;;;6.00;99.90;;;;;;5051402;28;20515;-72
2021/03/17 01:28:47;;;;;;;13.77;9.60;;;6.10;99.90;;;;;;5052236;28;20198;-72
2021/03/17 01:31:13;;;;;;;12.30;9.80;;;6.20;99.90;;;;;;5053682;28;20221;-72
2021/03/17 01:33:38;;;;;;;11.60;9.90;;;6.20;99.90;;;;;;5053486;28;20475;-72
2021/03/17 01:36:04;;;;;;;9.87;8.80;;;6.30;99.90;;;;;;5050431;28;20253;-72
2021/03/17 01:38:30;;;;;;;10.87;9.73;;;6.40;99.90;;;;;;5052823;28;20202;-72
2021/03/17 01:40:56;;;;;;;13.40;9.90;;;6.40;99.90;;;;;;5052135;28;20439;-72
2021/03/17 01:43:23;;;;;;;10.27;8.50;;;6.40;99.90;;;;;;5053749;28;20196;-72
2021/03/17 01:45:49;;;;;;;11.00;9.87;;;6.30;99.90;;;;;;5053586;28;20458;-72
2021/03/17 01:48:16;;;;;;;9.70;8.80;;;6.30;99.90;;;;;;5051437;28;20815;-72
2021/03/17 01:50:44;;;;;;;12.83;8.90;;;6.40;99.90;;;;;;5053366;28;20467;-71
2021/03/17 01:53:13;;;;;;;11.70;9.30;;;6.30;99.90;;;;;;5053246;28;20507;-71
2021/03/17 01:55:40;;;;;;;11.77;9.53;;;6.30;99.90;;;;;;5053710;28;20435;-71
2021/03/17 01:58:06;;;;;;;16.73;9.10;;;6.20;99.90;;;;;;5052346;28;20765;-71
2021/03/17 02:00:35;;;;;;;13.50;10.30;;;6.10;99.90;;;;;;5056885;28;20433;-71
2021/03/17 02:03:01;;;;;;;12.53;10.20;;;6.00;99.90;;;;;;5057201;28;20404;-71
2021/03/17 02:05:33;;;;;;;10.33;9.07;;;6.00;99.90;;;;;;5057418;28;20734;-72
2021/03/17 02:08:05;;;;;;;11.20;9.53;;;6.00;99.90;;;;;;5055705;28;20920;-72
2021/03/17 02:10:32;;;;;;;13.97;10.40;;;6.00;99.90;;;;;;5057432;28;20526;-72
2021/03/17 02:13:26;;;;;;;11.63;9.60;;;6.10;99.90;;;;;;5057270;28;20415;-72
2021/03/17 02:16:17;;;;;;;11.50;10.13;;;6.10;99.90;;;;;;5057621;28;20853;-71
2021/03/17 02:18:59;;;;;;;10.90;9.10;;;6.10;99.90;;;;;;5053601;28;20453;-72
2021/03/17 02:21:46;;;;;;;12.47;9.70;;;6.00;99.90;;;;;;5037385;28;20779;-72
2021/03/17 02:24:27;;;;;;;12.47;10.07;;;6.00;99.90;;;;;;5037413;28;20956;-72
2021/03/17 02:27:08;;;;;;;11.40;9.57;;;6.00;99.90;;;;;;5036140;28;20420;-72
2021/03/17 02:30:07;;;;;;;12.37;8.83;;;5.90;99.90;;;;;;5041242;28;20456;-72
2021/03/17 02:32:35;;;;;;;13.70;9.00;;;5.90;99.90;;;;;;5056963;28;21000;-72
2021/03/17 02:35:05;;;;;;;11.63;9.83;;;5.80;99.90;;;;;;5056845;28;20389;-72
2021/03/17 02:37:32;;;;;;;14.97;11.23;;;5.70;99.90;;;;;;5056916;28;20420;-72
2021/03/17 02:40:00;;;;;;;12.27;9.70;;;5.70;99.90;;;;;;5054663;28;20511;-72
2021/03/17 02:42:34;;;;;;;13.47;10.90;;;5.70;99.90;;;;;;5056579;28;20407;-72
2021/03/17 02:45:09;;;;;;;12.10;8.90;;;5.80;99.90;;;;;;5056720;28;20424;-72
2021/03/17 02:48:01;;;;;;;13.90;10.10;;;5.70;99.90;;;;;;5056375;28;20392;-71
2021/03/17 02:50:29;;;;;;;13.33;9.90;;;5.60;99.90;;;;;;5054806;28;20452;-71
2021/03/17 02:52:55;;;;;;;14.73;10.83;;;5.60;99.90;;;;;;5056397;28;20905;-72
2021/03/17 02:55:24;;;;;;;14.20;11.03;;;5.50;99.90;;;;;;5056660;28;20400;-72
2021/03/17 02:57:53;;;;;;;16.90;11.80;;;5.50;99.90;;;;;;5056463;28;20399;-72
2021/03/17 03:00:19;;;;;;;16.80;11.40;;;5.50;99.90;;;;;;5054466;28;20853;-72
2021/03/17 03:02:49;;;;;;;17.63;12.40;;;5.50;99.90;;;;;;5056798;28;20493;-73
2021/03/17 03:05:15;;;;;;;17.93;12.60;;;5.40;99.90;;;;;;5056380;28;20469;-73
2021/03/17 03:07:43;;;;;;;16.20;12.17;;;5.40;99.90;;;;;;5056297;28;20407;-71
2021/03/17 03:10:09;;;;;;;15.73;11.63;;;5.30;99.90;;;;;;5054915;28;20471;-70
2021/03/17 03:12:37;;;;;;;19.43;12.27;;;5.00;99.90;;;;;;5057730;28;20887;-71
2021/03/17 03:15:05;;;;;;;20.67;12.60;;;5.00;99.90;;;;;;5058032;28;20400;-71
2021/03/17 03:17:32;;;;;;;17.70;11.40;;;5.00;99.90;;;;;;5057872;28;20410;-71
2021/03/17 03:19:59;;;;;;;21.70;11.63;;;4.90;99.90;;;;;;5057019;28;20432;-71
2021/03/17 03:22:27;;;;;;;17.77;12.00;;;4.90;99.90;;;;;;5056964;28;20526;-71
2021/03/17 03:24:54;;;;;;;21.57;12.50;;;4.80;99.90;;;;;;5063165;28;20407;-72
2021/03/17 03:27:22;;;;;;;15.77;11.17;;;4.80;99.90;;;;;;5064663;28;20416;-70
2021/03/17 03:29:48;;;;;;;15.27;10.60;;;4.90;99.90;;;;;;5056564;28;20460;-71
2021/03/17 03:32:13;;;;;;;16.60;11.20;;;4.90;99.90;;;;;;5038183;28;20435;-71
2021/03/17 03:34:39;;;;;;;17.30;11.53;;;4.90;99.90;;;;;;5036349;28;20184;-71
2021/03/17 03:37:06;;;;;;;18.50;12.33;;;5.00;99.90;;;;;;5036276;28;20219;-72
2021/03/17 03:39:32;;;;;;;15.50;11.20;;;5.00;99.90;;;;;;5036756;28;20190;-71
2021/03/17 03:41:58;;;;;;;20.87;14.20;;;5.00;99.90;;;;;;5036291;28;20436;-71
2021/03/17 03:44:24;;;;;;;18.20;13.57;;;4.80;99.90;;;;;;5036080;28;20980;-71
2021/03/17 03:46:49;;;;;;;17.97;13.30;;;4.70;99.90;;;;;;5036061;28;20182;-71
2021/03/17 03:49:15;;;;;;;21.40;14.90;;;4.70;99.90;;;;;;5042754;28;20234;-71
2021/03/17 03:51:44;;;;;;;19.53;13.50;;;4.70;99.90;;;;;;5055578;28;20207;-71
2021/03/17 03:54:16;;;;;;;20.50;14.00;;;4.70;99.90;;;;;;5056337;28;20510;-70
2021/03/17 03:56:52;;;;;;;20.17;14.43;;;4.60;99.90;;;;;;5055597;28;20465;-71
2021/03/17 03:59:29;;;;;;;16.80;13.40;;;4.60;99.90;;;;;;5053086;28;20502;-71
2021/03/17 04:01:56;;;;;;;17.10;11.40;;;4.60;99.90;;;;;;5055340;28;20414;-71
2021/03/17 04:04:26;;;;;;;16.00;11.90;;;4.70;99.90;;;;;;5054776;28;20540;-72
2021/03/17 04:06:54;;;;;;;12.90;9.60;;;4.60;99.90;;;;;;5055022;28;20773;-71
2021/03/17 04:09:46;;;;;;;14.77;11.30;;;4.60;99.90;;;;;;5053103;28;20462;-72
2021/03/17 04:12:13;;;;;;;12.37;10.03;;;4.60;99.90;;;;;;5053499;28;20434;-72
2021/03/17 04:14:42;;;;;;;14.60;10.90;;;4.60;99.90;;;;;;5054387;28;20966;-72
2021/03/17 04:17:20;;;;;;;13.07;9.90;;;4.60;99.90;;;;;;5054755;28;20792;-71
2021/03/17 04:19:49;;;;;;;12.13;9.60;;;4.60;99.90;;;;;;5054266;28;20749;-72
2021/03/17 04:22:16;;;;;;;11.23;9.30;;;4.60;99.90;;;;;;5052125;28;20823;-71
2021/03/17 04:24:43;;;;;;;11.37;8.80;;;4.50;99.90;;;;;;5054035;28;20469;-72
2021/03/17 04:27:11;;;;;;;11.37;9.70;;;4.50;99.90;;;;;;5054135;28;20960;-72
2021/03/17 04:29:39;;;;;;;13.30;9.30;;;4.50;99.90;;;;;;5053897;28;20955;-71
2021/03/17 04:32:06;;;;;;;12.17;9.53;;;4.50;99.90;;;;;;5052812;28;20435;-72
2021/03/17 04:34:31;;;;;;;12.50;8.90;;;4.60;99.90;;;;;;5053801;28;20839;-71
2021/03/17 04:36:58;;;;;;;11.60;8.77;;;4.70;99.90;;;;;;5054860;28;20412;-72
2021/03/17 04:39:25;;;;;;;7.80;6.97;;;4.60;99.90;;;;;;5052664;28;20674;-71
2021/03/17 04:41:56;;;;;;;9.03;6.60;;;4.70;99.90;;;;;;5052562;28;20428;-70
2021/03/17 04:44:22;;;;;;;6.53;5.67;;;4.60;99.90;;;;;;5054232;28;20408;-72
2021/03/17 04:46:49;;;;;;;5.50;4.40;;;4.60;99.90;;;;;;5053969;28;20410;-71
2021/03/17 04:49:18;;;;;;;5.53;4.60;;;4.60;99.90;;;;;;5054015;28;20205;-72
2021/03/17 04:51:44;;;;;;;4.17;3.70;;;4.50;99.90;;;;;;5054114;28;20423;-72
2021/03/17 04:54:10;;;;;;;3.93;3.53;;;4.50;99.90;;;;;;5050516;28;20919;-72
2021/03/17 04:56:38;;;;;;;4.00;3.60;;;4.50;99.90;;;;;;5054049;28;20407;-72
2021/03/17 04:59:06;;;;;;;4.10;3.70;;;4.50;99.90;;;;;;5053900;28;20319;-71
2021/03/17 05:01:34;;;;;;;4.37;3.97;;;4.50;99.90;;;;;;5053688;28;20438;-71
2021/03/17 05:04:01;;;;;;;3.83;3.53;;;4.40;99.90;;;;;;5052318;28;20507;-71
2021/03/17 05:06:29;;;;;;;5.43;3.63;;;4.40;99.90;;;;;;5054018;28;20449;-71
2021/03/17 05:08:55;;;;;;;5.37;4.27;;;4.40;99.90;;;;;;5053325;28;20830;-71
2021/03/17 05:11:22;;;;;;;6.70;5.53;;;4.40;99.90;;;;;;5053971;28;20424;-71
2021/03/17 05:13:47;;;;;;;6.80;6.10;;;4.40;99.90;;;;;;5050656;28;20414;-71
2021/03/17 05:16:15;;;;;;;6.97;6.20;;;4.40;99.90;;;;;;5034096;28;20743;-71
2021/03/17 05:18:41;;;;;;;8.97;6.63;;;4.40;99.90;;;;;;5033357;28;20180;-71
2021/03/17 05:21:09;;;;;;;7.80;7.00;;;4.40;99.90;;;;;;5033621;28;20464;-71
2021/03/17 05:23:37;;;;;;;7.13;5.90;;;4.30;99.90;;;;;;5034069;28;20415;-71
2021/03/17 05:26:02;;;;;;;7.83;6.77;;;4.40;99.90;;;;;;5034505;28;20426;-71
2021/03/17 05:28:29;;;;;;;7.63;6.40;;;4.30;99.90;;;;;;5033280;28;20407;-71
2021/03/17 05:30:56;;;;;;;7.93;6.33;;;4.30;99.90;;;;;;5033726;28;20187;-71
2021/03/17 05:33:25;;;;;;;7.00;5.83;;;4.40;99.90;;;;;;5036687;28;20420;-71
2021/03/17 05:35:51;;;;;;;7.10;6.40;;;4.50;99.90;;;;;;5048043;28;20413;-71
2021/03/17 05:38:16;;;;;;;9.77;7.90;;;4.50;99.90;;;;;;5040094;28;20889;-72
2021/03/17 05:40:42;;;;;;;10.20;7.50;;;4.50;99.90;;;;;;5040148;28;20220;-72
2021/03/17 05:43:08;;;;;;;11.60;8.50;;;4.50;99.90;;;;;;5040419;28;20181;-71
2021/03/17 05:45:36;;;;;;;11.07;8.13;;;4.40;99.90;;;;;;5040280;28;20180;-71
2021/03/17 05:48:03;;;;;;;10.90;8.23;;;4.50;99.90;;;;;;5054426;28;20451;-71
2021/03/17 05:50:29;;;;;;;11.73;8.57;;;4.50;99.90;;;;;;5059780;28;20516;-72
2021/03/17 05:52:56;;;;;;;10.00;7.40;;;4.50;99.90;;;;;;5060341;28;20888;-72
2021/03/17 05:55:21;;;;;;;10.43;8.00;;;4.50;99.90;;;;;;5060141;28;20166;-71
2021/03/17 05:57:47;;;;;;;14.00;9.47;;;4.40;99.90;;;;;;5058238;28;20423;-71
2021/03/17 06:00:15;;;;;;;10.60;8.63;;;4.40;99.90;;;;;;5059706;28;20192;-71
2021/03/17 06:02:41;;;;;;;10.57;7.80;;;4.40;99.90;;;;;;5060269;28;20168;-71
2021/03/17 06:05:09;;;;;;;12.43;9.43;;;4.40;99.90;;;;;;5060147;28;20410;-71
2021/03/17 06:07:42;;;;;;;10.77;8.50;;;4.30;99.90;;;;;;5058388;28;20503;-72
2021/03/17 06:10:09;;;;;;;12.80;10.03;;;4.40;99.90;;;;;;5053903;28;20475;-72
2021/03/17 06:12:36;;;;;;;13.17;9.57;;;4.50;99.90;;;;;;5061917;28;20413;-71
2021/03/17 06:15:07;;;;;;;14.00;9.83;;;4.50;99.90;;;;;;5060511;28;20415;-71
2021/03/17 06:17:36;;;;;;;14.93;10.30;;;4.50;99.90;;;;;;5060654;28;20400;-70
2021/03/17 06:20:07;;;;;;;14.33;10.50;;;4.50;99.90;;;;;;5049050;28;20457;-71
2021/03/17 06:22:35;;;;;;;11.60;8.63;;;4.50;99.90;;;;;;5059512;28;20445;-72
2021/03/17 06:25:06;;;;;;;14.10;10.40;;;4.50;99.90;;;;;;5060436;28;20428;-72
2021/03/17 06:27:37;;;;;;;13.33;10.07;;;4.50;99.90;;;;;;5067973;28;20415;-71
2021/03/17 06:30:10;;;;;;;14.13;10.00;;;4.40;99.90;;;;;;5067114;28;20513;-71
2021/03/17 06:32:36;;;;;;;17.00;11.10;;;4.50;99.90;;;;;;5073558;28;20430;-71
2021/03/17 06:35:18;;;;;;;16.20;11.73;;;4.50;99.90;;;;;;5066780;28;20441;-72
2021/03/17 06:37:44;;;;;;;16.43;11.80;;;4.50;99.90;;;;;;5060349;28;20444;-72
2021/03/17 06:40:31;;;;;;;14.50;10.23;;;4.50;99.90;;;;;;5053716;28;20838;-72
2021/03/17 06:43:10;;;;;;;15.27;10.63;;;4.60;99.90;;;;;;5040073;28;20251;-72
2021/03/17 06:45:40;;;;;;;14.80;11.53;;;4.60;99.90;;;;;;5036403;28;20467;-72
2021/03/17 06:48:24;;;;;;;16.87;12.53;;;4.70;99.90;;;;;;5034922;28;20845;-71
2021/03/17 06:51:02;;;;;;;16.27;12.17;;;4.70;99.90;;;;;;5037746;28;20448;-71
2021/03/17 06:53:50;;;;;;;18.70;12.53;;;4.70;99.90;;;;;;5037248;28;20397;-72
2021/03/17 06:56:17;;;;;;;22.37;16.07;;;4.70;99.90;;;;;;5036378;28;20427;-72
2021/03/17 06:58:47;;;;;;;15.60;12.03;;;4.60;99.90;;;;;;5036904;28;20832;-72
2021/03/17 07:01:28;;;;;;;18.80;13.70;;;4.60;99.90;;;;;;5041523;28;20790;-72
2021/03/17 07:03:55;;;;;;;18.30;13.13;;;4.70;99.90;;;;;;5057751;28;20518;-72
2021/03/17 07:06:21;;;;;;;16.37;12.63;;;4.80;99.90;;;;;;5056982;28;20952;-72
2021/03/17 07:08:47;;;;;;;16.67;12.23;;;4.90;99.90;;;;;;5065192;28;20496;-71
2021/03/17 07:11:21;;;;;;;10.00;8.13;;;4.90;99.90;;;;;;5079355;28;20519;-72
2021/03/17 07:13:53;;;;;;;8.27;7.20;;;4.70;99.90;;;;;;5054851;28;20177;-71
2021/03/17 07:16:36;;;;;;;7.03;6.27;;;4.40;99.90;;;;;;5074148;28;20410;-71
2021/03/17 07:19:04;;;;;;;6.90;6.10;;;4.40;99.90;;;;;;5075900;28;20455;-72
2021/03/17 07:21:33;;;;;;;8.57;6.37;;;4.30;99.90;;;;;;5055552;28;20492;-71
2021/03/17 07:24:00;;;;;;;5.70;5.10;;;4.40;99.90;;;;;;5051658;28;20441;-72
2021/03/17 07:26:30;;;;;;;4.17;3.77;;;4.50;99.90;;;;;;5054840;28;20414;-72
2021/03/17 07:29:13;;;;;;;3.97;3.57;;;4.70;99.90;;;;;;5051377;28;20465;-71
2021/03/17 07:31:45;;;;;;;2.57;2.33;;;4.90;99.90;;;;;;5057779;28;20463;-73
2021/03/17 07:34:25;;;;;;;3.13;2.90;;;4.90;99.90;;;;;;5045701;28;20426;-72
2021/03/17 07:36:59;;;;;;;1.90;1.80;;;5.10;99.90;;;;;;5063558;28;20462;-72
2021/03/17 07:39:34;;;;;;;1.90;1.80;;;5.20;99.90;;;;;;5057140;28;20443;-72
2021/03/17 07:42:01;;;;;;;2.40;2.20;;;5.20;99.90;;;;;;5054368;28;20475;-72
2021/03/17 07:44:28;;;;;;;2.37;2.17;;;5.30;99.90;;;;;;5061294;28;20422;-72
2021/03/17 07:46:59;;;;;;;2.80;2.20;;;5.50;99.90;;;;;;5062643;28;20425;-73
2021/03/17 07:49:27;;;;;;;3.73;2.17;;;5.60;99.90;;;;;;5064273;28;20960;-72
2021/03/17 07:51:55;;;;;;;2.60;2.23;;;5.70;99.90;;;;;;5053880;28;20408;-73
2021/03/17 07:54:32;;;;;;;3.00;2.80;;;5.70;99.90;;;;;;5066582;28;20482;-72
2021/03/17 07:57:03;;;;;;;3.57;2.83;;;5.50;99.90;;;;;;5059538;28;20455;-73
2021/03/17 07:59:29;;;;;;;3.50;2.70;;;5.50;99.90;;;;;;5056873;28;20802;-71
2021/03/17 08:01:56;;;;;;;3.30;2.50;;;5.50;99.90;;;;;;5067647;28;20485;-72
2021/03/17 08:04:27;;;;;;;3.10;2.80;;;5.40;99.90;;;;;;5054815;28;20488;-73
2021/03/17 08:06:57;;;;;;;4.47;2.97;;;5.30;99.90;;;;;;5053721;28;20470;-71
2021/03/17 08:09:23;;;;;;;4.10;2.53;;;5.10;99.90;;;;;;5057904;28;20463;-71
2021/03/17 08:11:51;;;;;;;4.40;2.93;;;5.20;99.90;;;;;;5053468;28;20419;-72
2021/03/17 08:14:18;;;;;;;7.97;2.80;;;5.40;99.90;;;;;;5046401;28;20415;-72
2021/03/17 08:16:44;;;;;;;4.23;2.93;;;5.60;99.90;;;;;;5046294;28;20444;-72
2021/03/17 08:19:19;;;;;;;8.53;2.73;;;5.80;99.90;;;;;;5048863;28;20776;-72
2021/03/17 08:21:53;;;;;;;4.80;3.17;;;5.70;99.90;;;;;;5056655;28;20509;-73
2021/03/17 08:24:37;;;;;;;3.70;3.10;;;5.50;99.90;;;;;;5039501;28;20418;-72
2021/03/17 08:27:06;;;;;;;3.77;3.43;;;5.50;99.90;;;;;;5041646;28;20534;-73
2021/03/17 08:29:43;;;;;;;7.47;4.40;;;5.50;99.90;;;;;;5058790;28;21021;-72
2021/03/17 08:32:11;;;;;;;5.20;3.80;;;5.60;99.90;;;;;;5054064;28;20530;-72
2021/03/17 08:34:38;;;;;;;6.63;4.10;;;5.80;99.90;;;;;;5062961;28;20424;-72
2021/03/17 08:37:09;;;;;;;4.10;3.70;;;5.90;99.90;;;;;;5053395;28;20808;-72
2021/03/17 08:39:37;;;;;;;5.20;3.23;;;5.90;99.90;;;;;;5059638;28;20422;-72
2021/03/17 08:42:26;;;;;;;4.20;3.80;;;6.00;99.90;;;;;;5054042;28;20470;-73
2021/03/17 08:44:53;;;;;;;5.63;3.13;;;6.00;99.90;;;;;;5061336;28;20436;-72
2021/03/17 08:47:33;;;;;;;5.60;2.70;;;5.80;99.90;;;;;;5061045;28;20902;-71
2021/03/17 08:50:16;;;;;;;5.07;2.90;;;6.00;99.90;;;;;;5064412;28;20593;-71
2021/03/17 08:52:52;;;;;;;4.70;2.57;;;5.90;99.90;;;;;;5056326;28;20431;-73
2021/03/17 08:55:21;;;;;;;5.27;3.10;;;6.10;99.90;;;;;;5051566;28;20416;-73
2021/03/17 08:58:05;;;;;;;5.37;3.20;;;6.10;99.90;;;;;;5050350;28;20447;-72
2021/03/17 09:00:51;;;;;;;5.53;3.70;;;5.80;99.90;;;;;;5042040;28;20496;-72
2021/03/17 09:03:32;;;;;;;5.97;3.70;;;5.60;99.90;;;;;;5058075;28;20430;-73
2021/03/17 09:06:19;;;;;;;4.10;3.70;;;5.70;99.90;;;;;;5065935;28;20424;-73
2021/03/17 09:08:51;;;;;;;4.10;3.40;;;5.70;99.90;;;;;;5055164;28;20458;-72
2021/03/17 09:11:29;;;;;;;5.37;3.80;;;5.80;99.90;;;;;;5054868;28;20514;-70
2021/03/17 09:13:56;;;;;;;4.53;3.80;;;5.80;99.90;;;;;;5053346;28;20726;-72
2021/03/17 09:16:22;;;;;;;3.50;3.27;;;5.70;99.90;;;;;;5054671;28;20427;-72
2021/03/17 09:19:13;;;;;;;3.27;3.03;;;5.70;99.90;;;;;;5062417;28;20455;-74
2021/03/17 09:21:44;;;;;;;3.57;2.23;;;5.50;99.90;;;;;;5058363;28;20556;-72
2021/03/17 09:24:29;;;;;;;4.13;2.37;;;5.40;99.90;;;;;;5053047;28;20934;-72
2021/03/17 09:27:05;;;;;;;2.80;2.27;;;5.10;99.90;;;;;;5061389;28;20447;-70
2021/03/17 09:29:32;;;;;;;3.30;2.13;;;5.10;99.90;;;;;;5063825;28;20458;-72
2021/03/17 09:32:00;;;;;;;3.70;2.07;;;5.00;99.90;;;;;;5039454;28;20425;-72
2021/03/17 09:34:33;;;;;;;4.90;2.30;;;4.90;99.90;;;;;;5066394;28;20448;-72
2021/03/17 09:37:06;;;;;;;4.97;2.70;;;4.80;99.90;;;;;;5060069;28;20427;-70
2021/03/17 09:39:36;;;;;;;2.53;2.13;;;4.80;99.90;;;;;;5056251;28;20440;-71
2021/03/17 09:42:01;;;;;;;3.03;2.30;;;4.80;99.90;;;;;;5067120;28;20422;-71
2021/03/17 09:44:27;;;;;;;1.97;1.70;;;5.00;99.90;;;;;;5056304;28;20790;-71
2021/03/17 09:46:53;;;;;;;2.63;2.27;;;5.10;99.90;;;;;;5056682;28;20192;-72
2021/03/17 09:49:21;;;;;;;5.20;2.27;;;5.10;99.90;;;;;;5046384;28;20198;-71
2021/03/17 09:51:48;;;;;;;4.90;2.47;;;5.10;99.90;;;;;;5030181;28;20808;-70
2021/03/17 09:54:17;;;;;;;3.87;2.00;;;5.30;99.90;;;;;;5065834;28;20452;-71
2021/03/17 09:56:42;;;;;;;4.00;2.70;;;5.50;99.90;;;;;;5053287;28;20527;-73
2021/03/17 09:59:26;;;;;;;6.20;2.07;;;5.80;99.90;;;;;;5053168;28;20874;-70
2021/03/17 10:02:00;;;;;;;2.80;2.40;;;6.00;99.90;;;;;;5066809;28;20181;-70
2021/03/17 10:04:28;;;;;;;3.07;2.43;;;6.20;99.90;;;;;;5055645;28;20761;-72
2021/03/17 10:06:55;;;;;;;4.03;2.63;;;6.10;99.90;;;;;;5061695;28;20562;-71
2021/03/17 10:09:25;;;;;;;3.87;1.93;;;6.30;99.90;;;;;;5060474;28;20459;-72
2021/03/17 10:12:17;;;;;;;2.33;2.13;;;6.30;99.90;;;;;;5052928;28;20420;-73
2021/03/17 10:14:47;;;;;;;4.17;2.37;;;6.30;99.90;;;;;;5069910;28;20420;-71
2021/03/17 10:17:14;;;;;;;3.23;2.60;;;6.40;99.90;;;;;;5050668;28;20521;-72
2021/03/17 10:19:41;;;;;;;2.60;2.40;;;6.30;99.90;;;;;;5064894;28;20768;-72
2021/03/17 10:22:08;;;;;;;2.67;2.20;;;6.30;99.90;;;;;;5057093;28;20439;-71
2021/03/17 10:24:49;;;;;;;4.50;2.10;;;6.40;99.90;;;;;;5067728;28;20776;-71
2021/03/17 10:27:21;;;;;;;3.90;2.67;;;6.50;99.90;;;;;;5052838;28;20980;-71
2021/03/17 10:29:49;;;;;;;5.00;2.40;;;6.30;99.90;;;;;;5065087;28;21028;-72
2021/03/17 10:32:20;;;;;;;3.57;2.27;;;6.30;99.90;;;;;;5039183;28;20412;-72
2021/03/17 10:34:45;;;;;;;4.00;2.37;;;6.30;99.90;;;;;;5063955;28;20401;-71
2021/03/17 10:37:13;;;;;;;3.53;2.60;;;6.20;99.90;;;;;;5061755;28;20457;-70
2021/03/17 10:39:39;;;;;;;3.43;3.13;;;6.10;99.90;;;;;;5063032;28;20192;-71
2021/03/17 10:42:26;;;;;;;4.37;3.40;;;6.00;99.90;;;;;;5072787;28;20419;-73
2021/03/17 10:45:06;;;;;;;5.00;3.50;;;6.00;99.90;;;;;;5078175;28;20408;-71
2021/03/17 10:47:32;;;;;;;4.67;3.47;;;6.00;99.90;;;;;;5077107;28;20486;-71
2021/03/17 10:49:58;;;;;;;3.03;2.60;;;5.80;99.90;;;;;;5047134;28;20961;-72
2021/03/17 10:52:46;;;;;;;3.97;2.50;;;5.80;99.90;;;;;;5057431;28;20412;-72
2021/03/17 10:55:16;;;;;;;3.00;2.67;;;6.00;99.90;;;;;;5056826;28;20170;-72
2021/03/17 10:57:42;;;;;;;5.57;2.90;;;6.00;99.90;;;;;;5056675;28;20455;-70
2021/03/17 11:00:12;;;;;;;5.57;3.27;;;6.10;99.90;;;;;;5055343;28;20531;-71
2021/03/17 11:02:38;;;;;;;4.83;2.73;;;6.10;99.90;;;;;;5055188;28;20437;-72
2021/03/17 11:05:07;;;;;;;4.60;2.80;;;6.00;99.90;;;;;;5056162;28;20412;-71
2021/03/17 11:07:52;;;;;;;3.60;3.07;;;6.10;99.90;;;;;;5055882;28;20166;-73
2021/03/17 11:10:32;;;;;;;5.23;3.10;;;6.00;99.90;;;;;;5054950;28;20464;-71
2021/03/17 11:13:12;;;;;;;3.40;3.00;;;6.00;99.90;;;;;;5056753;28;20405;-72
2021/03/17 11:15:46;;;;;;;9.73;4.10;;;6.00;99.90;;;;;;5069818;28;20419;-72
2021/03/17 11:18:29;;;;;;;2.93;2.70;;;6.20;99.90;;;;;;5075669;28;20498;-72
2021/03/17 11:21:05;;;;;;;4.93;3.77;;;6.20;99.90;;;;;;5057219;28;20461;-72
2021/03/17 11:23:37;;;;;;;4.70;2.77;;;6.50;99.90;;;;;;5037202;28;21021;-71
2021/03/17 11:26:07;;;;;;;3.10;2.80;;;6.60;99.90;;;;;;5056028;28;20543;-71
2021/03/17 11:28:40;;;;;;;7.07;2.47;;;6.80;99.90;;;;;;5056172;28;20451;-71
2021/03/17 11:31:08;;;;;;;3.90;2.33;;;6.90;99.60;;;;;;5050988;28;20437;-72
2021/03/17 11:33:35;;;;;;;2.60;2.23;;;6.90;98.90;;;;;;5035323;28;20410;-72
2021/03/17 11:36:03;;;;;;;2.90;2.47;;;7.10;99.90;;;;;;5035917;28;20412;-71
2021/03/17 11:38:29;;;;;;;3.20;2.30;;;7.30;99.90;;;;;;5035574;28;20433;-72
2021/03/17 11:40:58;;;;;;;4.37;2.00;;;7.40;99.10;;;;;;5037513;28;20855;-72
2021/03/17 11:43:26;;;;;;;3.80;2.50;;;7.30;97.50;;;;;;5035537;28;20406;-72
2021/03/17 11:45:53;;;;;;;3.00;2.50;;;7.30;97.80;;;;;;5035648;28;20420;-72
2021/03/17 11:48:20;;;;;;;3.13;1.73;;;7.10;98.20;;;;;;5035641;28;20898;-71
2021/03/17 11:50:52;;;;;;;2.20;2.00;;;7.00;98.00;;;;;;5036684;28;20476;-72
2021/03/17 11:53:18;;;;;;;2.93;1.77;;;6.90;97.70;;;;;;5034131;28;20422;-73
2021/03/17 11:55:45;;;;;;;4.10;2.03;;;6.70;96.90;;;;;;5035793;28;20501;-72
2021/03/17 11:58:12;;;;;;;2.50;1.80;;;6.60;97.10;;;;;;5040974;28;20459;-73
2021/03/17 12:00:38;;;;;;;1.97;1.87;;;6.60;97.00;;;;;;5052821;28;20476;-71
2021/03/17 12:03:05;;;;;;;2.90;1.73;;;6.60;97.20;;;;;;5035571;28;20437;-71
2021/03/17 12:05:31;;;;;;;4.80;1.90;;;6.60;96.80;;;;;;5035166;28;20471;-73
2021/03/17 12:07:56;;;;;;;2.13;1.80;;;6.50;97.20;;;;;;5041506;28;20413;-70
2021/03/17 12:10:25;;;;;;;5.60;2.33;;;6.50;97.40;;;;;;5054681;28;20460;-68
2021/03/17 12:12:51;;;;;;;7.13;2.47;;;6.50;97.70;;;;;;5038802;28;20189;-70
2021/03/17 12:15:19;;;;;;;4.07;2.07;;;6.50;98.20;;;;;;5060872;28;20495;-71
2021/03/17 12:17:46;;;;;;;2.33;2.13;;;6.50;97.60;;;;;;5074759;28;20415;-71
2021/03/17 12:20:13;;;;;;;4.03;2.50;;;6.40;97.40;;;;;;5073554;28;20534;-71
2021/03/17 12:22:39;;;;;;;3.93;2.93;;;6.60;98.20;;;;;;5045485;28;20462;-70
2021/03/17 12:25:06;;;;;;;2.63;1.80;;;6.60;98.50;;;;;;5034834;28;20898;-71
2021/03/17 12:27:33;;;;;;;6.53;2.30;;;6.70;97.70;;;;;;5034758;28;20471;-71
2021/03/17 12:29:58;;;;;;;3.43;2.60;;;6.80;97.80;;;;;;5035216;28;20461;-70
2021/03/17 12:32:25;;;;;;;6.93;2.50;;;7.10;98.20;;;;;;5035375;28;20433;-71
2021/03/17 12:34:53;;;;;;;5.30;3.33;;;7.10;97.30;;;;;;5034743;28;20190;-71
2021/03/17 12:37:22;;;;;;;4.50;2.60;;;7.10;97.20;;;;;;5047056;28;20441;-72
2021/03/17 12:39:48;;;;;;;2.23;2.03;;;7.10;96.70;;;;;;5053547;28;20444;-72
2021/03/17 12:42:14;;;;;;;8.53;2.80;;;6.90;96.80;;;;;;5062738;28;20416;-71
2021/03/17 12:44:40;;;;;;;2.07;1.97;;;7.00;97.10;;;;;;5039791;28;20913;-72
2021/03/17 12:47:08;;;;;;;3.60;2.60;;;6.90;96.40;;;;;;5052361;28;20423;-71
2021/03/17 12:49:35;;;;;;;3.63;2.40;;;6.90;96.40;;;;;;5045629;28;20301;-72
2021/03/17 12:52:01;;;;;;;2.70;2.33;;;7.00;95.60;;;;;;5062177;28;20465;-73
2021/03/17 12:54:27;;;;;;;5.07;2.53;;;7.10;96.20;;;;;;5047857;28;20426;-72
2021/03/17 12:56:52;;;;;;;4.53;2.20;;;7.30;96.30;;;;;;5057933;28;20423;-71
2021/03/17 12:59:18;;;;;;;4.30;2.97;;;7.40;95.80;;;;;;5056181;28;20193;-72
2021/03/17 13:01:44;;;;;;;9.80;2.30;;;7.40;95.90;;;;;;5072767;28;20221;-71
2021/03/17 13:04:10;;;;;;;4.20;2.93;;;7.30;95.40;;;;;;5060357;28;20182;-71